createdAt,value
2023-08-27T00:01:00.207Z,13.07
2023-08-27T00:03:27.891Z,12.97
2023-08-27T00:06:07.307Z,13.11
2023-08-27T00:08:34.833Z,13.11
2023-08-27T00:11:12.166Z,13.12
2023-08-27T00:13:52.455Z,13.23
2023-08-27T00:19:07.388Z,13.23
2023-08-27T00:27:55.222Z,13.00
2023-08-27T00:30:26.205Z,12.96
2023-08-27T00:33:00.539Z,13.10
2023-08-27T00:35:36.905Z,13.00
2023-08-27T00:38:14.215Z,12.99
2023-08-27T00:40:43.145Z,13.02
2023-08-27T00:43:17.143Z,12.92
2023-08-27T00:45:57.263Z,12.93
2023-08-27T00:48:32.271Z,12.98
2023-08-27T00:51:10.146Z,13.00
2023-08-27T00:56:52.656Z,12.95
2023-08-27T00:59:26.206Z,13.05
2023-08-27T01:01:57.005Z,12.92
2023-08-27T01:05:02.228Z,13.04
2023-08-27T01:07:55.242Z,12.92
2023-08-27T01:11:09.293Z,12.97
2023-08-27T01:13:52.206Z,13.06
2023-08-27T01:22:47.249Z,12.98
2023-08-27T01:25:26.905Z,12.95
2023-08-27T01:28:12.141Z,12.92
2023-08-27T01:30:56.518Z,12.82
2023-08-27T01:33:34.152Z,12.82
2023-08-27T01:36:02.436Z,12.68
2023-08-27T01:38:37.314Z,12.64
2023-08-27T01:41:13.855Z,12.68
2023-08-27T01:43:48.278Z,12.61
2023-08-27T01:46:15.924Z,12.66
2023-08-27T01:48:52.430Z,12.62
2023-08-27T01:51:20.035Z,12.45
2023-08-27T01:53:57.293Z,12.39
2023-08-27T01:56:27.838Z,12.32
2023-08-27T01:59:05.071Z,12.42
2023-08-27T02:01:32.870Z,12.20
2023-08-27T02:04:12.258Z,12.17
2023-08-27T02:06:39.990Z,12.27
2023-08-27T02:09:23.098Z,12.23
2023-08-27T02:12:06.198Z,12.12
2023-08-27T02:14:44.968Z,12.10
2023-08-27T02:17:24.648Z,12.23
2023-08-27T02:19:53.357Z,12.09
2023-08-27T02:22:28.194Z,12.14
2023-08-27T02:24:55.692Z,12.29
2023-08-27T02:27:29.311Z,12.21
2023-08-27T02:29:59.908Z,12.30
2023-08-27T02:32:34.282Z,12.23
2023-08-27T02:35:02.109Z,12.27
2023-08-27T02:37:39.225Z,12.28
2023-08-27T02:40:09.956Z,12.31
2023-08-27T02:42:46.306Z,12.30
2023-08-27T02:45:23.149Z,12.44
2023-08-27T02:47:57.397Z,12.38
2023-08-27T02:50:33.803Z,12.53
2023-08-27T02:53:08.324Z,12.47
2023-08-27T02:55:46.800Z,12.57
2023-08-27T02:58:21.139Z,12.54
2023-08-27T03:00:57.289Z,12.49
2023-08-27T03:03:24.908Z,12.57
2023-08-27T03:05:59.302Z,12.51
2023-08-27T03:08:26.978Z,12.69
2023-08-27T03:11:03.263Z,12.59
2023-08-27T03:13:37.761Z,12.67
2023-08-27T03:16:21.366Z,12.77
2023-08-27T03:18:49.026Z,12.64
2023-08-27T03:21:26.304Z,12.65
2023-08-27T03:23:53.909Z,12.72
2023-08-27T03:26:29.294Z,12.85
2023-08-27T03:28:56.824Z,12.72
2023-08-27T03:31:33.250Z,12.84
2023-08-27T03:34:03.085Z,12.75
2023-08-27T03:36:40.604Z,12.74
2023-08-27T03:39:13.376Z,12.91
2023-08-27T03:41:47.380Z,12.87
2023-08-27T03:44:15.647Z,12.93
2023-08-27T03:46:43.380Z,12.83
2023-08-27T03:49:17.292Z,12.87
2023-08-27T03:51:54.316Z,12.96
2023-08-27T03:54:22.096Z,12.85
2023-08-27T03:56:56.283Z,12.97
2023-08-27T03:59:29.626Z,12.91
2023-08-27T04:02:05.500Z,12.95
2023-08-27T04:04:35.864Z,12.77
2023-08-27T04:07:10.325Z,12.83
2023-08-27T04:09:48.424Z,12.85
2023-08-27T04:12:22.616Z,12.79
2023-08-27T04:17:47.381Z,12.79
2023-08-27T04:20:28.882Z,12.95
2023-08-27T04:22:59.896Z,12.92
2023-08-27T04:25:37.552Z,13.01
2023-08-27T04:28:05.048Z,12.97
2023-08-27T04:30:41.281Z,13.06
2023-08-27T04:33:09.089Z,13.15
2023-08-27T04:35:48.169Z,12.98
2023-08-27T04:41:09.305Z,13.14
2023-08-27T04:43:36.264Z,13.14
2023-08-27T04:46:10.393Z,13.18
2023-08-27T04:48:44.177Z,13.15
2023-08-27T04:51:11.210Z,13.22
2023-08-27T04:53:47.251Z,13.23
2023-08-27T04:56:17.510Z,13.28
2023-08-27T04:58:53.241Z,13.16
2023-08-27T05:01:20.879Z,13.19
2023-08-27T05:03:55.429Z,13.25
2023-08-27T05:06:25.217Z,13.28
2023-08-27T05:08:59.434Z,13.47
2023-08-27T05:11:26.936Z,13.43
2023-08-27T05:14:08.802Z,13.40
2023-08-27T05:16:43.455Z,13.48
2023-08-27T05:19:19.401Z,13.58
2023-08-27T05:21:56.389Z,13.59
2023-08-27T05:24:23.964Z,13.46
2023-08-27T05:27:00.524Z,13.60
2023-08-27T05:29:28.317Z,13.47
2023-08-27T05:32:06.350Z,13.57
2023-08-27T05:34:38.217Z,13.53
2023-08-27T05:37:12.410Z,13.47
2023-08-27T05:39:40.342Z,13.65
2023-08-27T05:42:21.297Z,13.67
2023-08-27T05:44:48.829Z,13.49
2023-08-27T05:47:25.492Z,13.59
2023-08-27T05:49:55.934Z,13.58
2023-08-27T05:53:13.423Z,13.62
2023-08-27T05:55:41.325Z,13.56
2023-08-27T05:58:19.558Z,13.41
2023-08-27T06:00:47.723Z,13.39
2023-08-27T06:03:27.499Z,13.21
2023-08-27T06:06:01.177Z,13.14
2023-08-27T06:08:40.799Z,13.07
2023-08-27T06:11:22.868Z,13.05
2023-08-27T06:21:18.706Z,13.06
2023-08-27T06:24:43.952Z,13.02
2023-08-27T06:30:57.575Z,12.97
2023-08-27T06:36:44.496Z,12.98
2023-08-27T06:45:18.222Z,13.10
2023-08-27T06:47:45.390Z,13.21
2023-08-27T06:50:21.819Z,13.21
2023-08-27T06:52:55.613Z,13.37
2023-08-27T06:55:23.022Z,13.44
2023-08-27T06:57:56.545Z,13.50
2023-08-27T07:00:23.332Z,13.54
2023-08-27T07:02:57.631Z,13.54
2023-08-27T07:05:25.383Z,13.55
2023-08-27T07:08:15.806Z,13.57
2023-08-27T07:10:42.611Z,13.60
2023-08-27T07:13:15.991Z,13.68
2023-08-27T07:15:42.869Z,13.79
2023-08-27T07:18:16.684Z,13.81
2023-08-27T07:20:43.594Z,13.86
2023-08-27T07:23:16.662Z,13.89
2023-08-27T07:25:50.599Z,13.91
2023-08-27T07:28:17.635Z,13.90
2023-08-27T07:30:50.605Z,14.01
2023-08-27T07:33:18.170Z,13.99
2023-08-27T07:35:51.673Z,14.13
2023-08-27T07:38:18.533Z,14.24
2023-08-27T07:40:51.639Z,14.38
2023-08-27T07:43:38.624Z,14.54
2023-08-27T07:46:12.677Z,14.63
2023-08-27T07:48:45.640Z,14.65
2023-08-27T07:51:18.713Z,14.66
2023-08-27T07:53:45.554Z,14.67
2023-08-27T07:56:18.686Z,14.70
2023-08-27T07:58:51.674Z,14.73
2023-08-27T08:01:18.725Z,14.77
2023-08-27T08:03:52.715Z,14.78
2023-08-27T08:06:20.050Z,14.83
2023-08-27T08:08:53.773Z,14.87
2023-08-27T08:11:20.605Z,14.89
2023-08-27T08:13:54.691Z,14.93
2023-08-27T08:16:24.606Z,15.03
2023-08-27T08:18:58.674Z,15.20
2023-08-27T08:21:25.668Z,15.31
2023-08-27T08:23:58.755Z,15.36
2023-08-27T08:26:25.701Z,15.44
2023-08-27T08:28:58.713Z,15.52
2023-08-27T08:31:25.892Z,15.55
2023-08-27T08:33:59.688Z,15.63
2023-08-27T08:36:34.047Z,15.68
2023-08-27T08:39:01.058Z,15.76
2023-08-27T08:41:35.660Z,15.79
2023-08-27T08:44:50.724Z,15.88
2023-08-27T08:47:26.823Z,15.78
2023-08-27T08:50:08.899Z,15.77
2023-08-27T08:52:46.871Z,15.78
2023-08-27T08:55:23.696Z,15.81
2023-08-27T08:58:10.743Z,15.86
2023-08-27T09:00:44.744Z,15.90
2023-08-27T09:03:12.590Z,15.97
2023-08-27T09:05:41.178Z,16.05
2023-08-27T09:08:17.723Z,16.10
2023-08-27T09:10:44.481Z,16.12
2023-08-27T09:13:18.714Z,16.05
2023-08-27T09:15:51.813Z,15.97
2023-08-27T09:18:25.690Z,15.89
2023-08-27T09:20:52.656Z,15.81
2023-08-27T09:23:25.756Z,15.74
2023-08-27T09:25:54.340Z,15.69
2023-08-27T09:28:28.651Z,15.70
2023-08-27T09:30:55.510Z,15.76
2023-08-27T09:33:43.817Z,15.89
2023-08-27T09:36:11.294Z,16.24
2023-08-27T09:38:46.734Z,16.66
2023-08-27T09:41:18.415Z,17.13
2023-08-27T09:44:01.721Z,17.47
2023-08-27T09:46:45.693Z,17.66
2023-08-27T09:49:18.759Z,17.90
2023-08-27T09:51:45.627Z,18.07
2023-08-27T09:54:17.693Z,18.07
2023-08-27T09:56:55.675Z,18.23
2023-08-27T09:59:28.750Z,18.32
2023-08-27T10:02:01.766Z,18.43
2023-08-27T10:04:28.613Z,18.39
2023-08-27T10:07:01.676Z,18.42
2023-08-27T10:09:35.906Z,18.43
2023-08-27T10:12:09.749Z,18.61
2023-08-27T10:14:41.323Z,18.81
2023-08-27T10:17:14.758Z,19.04
2023-08-27T10:19:42.236Z,19.16
2023-08-27T10:22:15.807Z,19.08
2023-08-27T10:24:50.758Z,18.69
2023-08-27T10:27:24.768Z,18.40
2023-08-27T10:29:53.340Z,18.15
2023-08-27T10:32:26.726Z,17.93
2023-08-27T10:34:59.778Z,17.83
2023-08-27T10:37:35.750Z,17.75
2023-08-27T10:40:10.238Z,17.70
2023-08-27T10:42:46.771Z,17.76
2023-08-27T10:45:28.976Z,18.01
2023-08-27T10:48:24.071Z,18.51
2023-08-27T10:51:14.750Z,18.94
2023-08-27T10:53:57.789Z,19.29
2023-08-27T10:56:33.226Z,19.52
2023-08-27T10:59:08.765Z,19.64
2023-08-27T11:01:43.748Z,19.84
2023-08-27T11:04:10.595Z,19.89
2023-08-27T11:06:56.787Z,19.82
2023-08-27T11:09:27.157Z,20.00
2023-08-27T11:12:07.762Z,20.14
2023-08-27T11:14:38.654Z,20.24
2023-08-27T11:17:13.766Z,20.33
2023-08-27T11:19:46.773Z,20.36
2023-08-27T11:22:20.525Z,20.43
2023-08-27T11:24:55.801Z,20.70
2023-08-27T11:30:58.853Z,20.39
2023-08-27T11:33:37.256Z,20.05
2023-08-27T11:36:11.789Z,19.85
2023-08-27T11:38:38.634Z,20.05
2023-08-27T11:41:12.828Z,20.32
2023-08-27T11:43:39.621Z,20.74
2023-08-27T11:46:12.789Z,21.01
2023-08-27T11:48:54.758Z,20.95
2023-08-27T11:51:21.824Z,20.87
2023-08-27T11:53:54.856Z,20.46
2023-08-27T11:56:27.820Z,19.73
2023-08-27T11:58:56.664Z,18.57
2023-08-27T12:01:30.773Z,17.67
2023-08-27T12:04:04.802Z,17.28
2023-08-27T12:06:32.072Z,16.89
2023-08-27T12:09:05.786Z,16.52
2023-08-27T12:11:38.818Z,16.17
2023-08-27T12:14:05.588Z,15.82
2023-08-27T12:16:40.869Z,15.68
2023-08-27T12:19:10.026Z,15.72
2023-08-27T12:21:53.791Z,15.71
2023-08-27T12:24:30.908Z,15.70
2023-08-27T12:27:15.817Z,15.64
2023-08-27T12:32:41.824Z,15.94
2023-08-27T12:35:13.179Z,15.88
2023-08-27T12:37:46.871Z,15.83
2023-08-27T12:40:19.881Z,15.81
2023-08-27T12:42:52.815Z,15.74
2023-08-27T12:45:25.822Z,15.66
2023-08-27T12:47:52.668Z,15.53
2023-08-27T12:50:26.990Z,15.41
2023-08-27T12:52:59.846Z,15.22
2023-08-27T12:55:26.791Z,14.98
2023-08-27T12:58:00.040Z,14.78
2023-08-27T13:00:27.242Z,14.59
2023-08-27T13:03:00.887Z,14.50
2023-08-27T13:05:33.874Z,14.43
2023-08-27T13:08:02.469Z,14.30
2023-08-27T13:10:35.918Z,14.27
2023-08-27T13:13:02.965Z,14.22
2023-08-27T13:15:30.032Z,14.19
2023-08-27T13:18:04.917Z,14.19
2023-08-27T13:20:37.833Z,14.13
2023-08-27T13:23:05.191Z,14.16
2023-08-27T13:25:38.902Z,14.21
2023-08-27T13:28:12.853Z,14.24
2023-08-27T13:30:46.252Z,14.24
2023-08-27T13:33:19.810Z,14.27
2023-08-27T13:35:47.188Z,14.33
2023-08-27T13:38:20.898Z,14.37
2023-08-27T13:40:47.850Z,14.37
2023-08-27T13:43:23.928Z,14.38
2023-08-27T13:45:51.207Z,14.43
2023-08-27T13:48:24.894Z,14.46
2023-08-27T13:50:51.766Z,14.46
2023-08-27T13:53:25.857Z,14.43
2023-08-27T13:55:53.393Z,14.43
2023-08-27T13:58:20.638Z,14.38
2023-08-27T14:00:53.826Z,14.37
2023-08-27T14:03:26.930Z,14.41
2023-08-27T14:05:53.860Z,14.36
2023-08-27T14:08:31.876Z,14.45
2023-08-27T14:11:05.913Z,14.49
2023-08-27T14:13:33.114Z,14.61
2023-08-27T14:16:06.922Z,14.85
2023-08-27T14:18:33.802Z,15.24
2023-08-27T14:21:09.781Z,15.77
2023-08-27T14:23:37.029Z,16.46
2023-08-27T14:26:10.888Z,16.91
2023-08-27T14:28:37.708Z,17.23
2023-08-27T14:31:17.894Z,17.49
2023-08-27T14:33:44.621Z,17.81
2023-08-27T14:36:17.929Z,18.12
2023-08-27T14:38:45.432Z,18.51
2023-08-27T14:41:12.201Z,18.85
2023-08-27T14:43:45.874Z,18.92
2023-08-27T14:46:19.005Z,18.95
2023-08-27T14:48:52.869Z,18.94
2023-08-27T14:51:19.982Z,18.93
2023-08-27T14:53:53.876Z,19.05
2023-08-27T14:56:20.635Z,19.00
2023-08-27T14:58:57.861Z,19.14
2023-08-27T15:01:24.849Z,19.40
2023-08-27T15:03:57.846Z,19.41
2023-08-27T15:06:24.636Z,19.58
2023-08-27T15:08:58.915Z,19.83
2023-08-27T15:11:31.921Z,19.89
2023-08-27T15:14:04.908Z,20.02
2023-08-27T15:16:37.900Z,19.97
2023-08-27T15:19:04.812Z,20.07
2023-08-27T15:21:37.949Z,20.09
2023-08-27T15:24:05.098Z,20.02
2023-08-27T15:26:38.963Z,19.99
2023-08-27T15:29:05.919Z,19.90
2023-08-27T15:31:54.945Z,19.77
2023-08-27T15:34:27.928Z,19.66
2023-08-27T15:37:00.933Z,19.74
2023-08-27T15:39:27.756Z,19.71
2023-08-27T15:42:02.921Z,19.75
2023-08-27T15:44:29.789Z,19.72
2023-08-27T15:47:02.871Z,19.54
2023-08-27T15:49:36.873Z,19.31
2023-08-27T15:52:03.856Z,19.20
2023-08-27T15:54:36.887Z,19.15
2023-08-27T15:57:03.869Z,19.18
2023-08-27T15:59:36.973Z,19.27
2023-08-27T16:02:03.943Z,19.42
2023-08-27T16:04:37.035Z,19.25
2023-08-27T16:07:07.468Z,19.10
2023-08-27T16:09:41.066Z,18.93
2023-08-27T16:12:07.797Z,18.62
2023-08-27T16:14:34.645Z,18.27
2023-08-27T16:17:08.054Z,18.02
2023-08-27T16:19:35.194Z,17.92
2023-08-27T16:22:08.980Z,17.86
2023-08-27T16:24:35.861Z,17.77
2023-08-27T16:27:09.964Z,17.82
2023-08-27T16:29:36.696Z,17.90
2023-08-27T16:32:17.054Z,17.82
2023-08-27T16:34:44.085Z,17.77
2023-08-27T16:37:18.938Z,17.71
2023-08-27T16:39:47.126Z,17.62
2023-08-27T16:42:21.020Z,17.62
2023-08-27T16:44:47.876Z,17.63
2023-08-27T16:47:20.932Z,17.68
2023-08-27T16:49:53.935Z,17.61
2023-08-27T16:52:26.985Z,17.53
2023-08-27T16:54:54.112Z,17.45
2023-08-27T16:57:20.894Z,17.45
2023-08-27T16:59:53.923Z,17.37
2023-08-27T17:02:20.734Z,17.29
2023-08-27T17:04:53.943Z,17.24
2023-08-27T17:07:20.679Z,17.17
2023-08-27T17:09:53.965Z,17.09
2023-08-27T17:12:20.799Z,17.08
2023-08-27T17:14:56.962Z,16.95
2023-08-27T17:17:23.890Z,17.03
2023-08-27T17:19:57.030Z,16.99
2023-08-27T17:22:25.790Z,16.97
2023-08-27T17:25:01.971Z,16.96
2023-08-27T17:27:28.775Z,16.93
2023-08-27T17:30:09.044Z,16.88
2023-08-27T17:32:42.396Z,16.81
2023-08-27T17:35:15.962Z,16.73
2023-08-27T17:37:49.969Z,16.69
2023-08-27T17:40:23.037Z,16.62
2023-08-27T17:42:56.919Z,16.57
2023-08-27T17:45:23.761Z,16.47
2023-08-27T17:48:14.052Z,16.38
2023-08-27T17:50:41.561Z,16.26
2023-08-27T17:53:14.972Z,16.20
2023-08-27T17:59:01.989Z,16.04
2023-08-27T18:01:35.089Z,15.88
2023-08-27T18:04:11.131Z,15.87
2023-08-27T18:06:38.450Z,15.80
2023-08-27T18:09:07.149Z,15.67
2023-08-27T18:11:41.046Z,15.63
2023-08-27T18:14:14.007Z,15.51
2023-08-27T18:16:40.847Z,15.46
2023-08-27T18:19:14.046Z,15.40
2023-08-27T18:21:40.919Z,15.33
2023-08-27T18:24:15.051Z,15.26
2023-08-27T18:26:48.009Z,15.21
2023-08-27T18:29:22.037Z,15.14
2023-08-27T18:31:55.295Z,15.08
2023-08-27T18:34:29.027Z,14.96
2023-08-27T18:37:02.088Z,14.92
2023-08-27T18:39:29.153Z,14.80
2023-08-27T18:42:02.154Z,14.75
2023-08-27T18:44:33.041Z,14.68
2023-08-27T18:47:06.140Z,14.55
2023-08-27T18:49:45.130Z,14.59
2023-08-27T18:52:18.109Z,14.47
2023-08-27T18:54:48.292Z,14.44
2023-08-27T18:57:22.141Z,14.48
2023-08-27T18:59:59.092Z,14.41
2023-08-27T19:02:32.192Z,14.39
2023-08-27T19:04:59.238Z,14.33
2023-08-27T19:07:38.076Z,14.23
2023-08-27T19:10:20.180Z,14.14
2023-08-27T19:12:47.729Z,14.11
2023-08-27T19:15:23.440Z,13.98
2023-08-27T19:17:57.229Z,13.97
2023-08-27T19:25:47.088Z,13.89
2023-08-27T19:28:33.820Z,13.96
2023-08-27T19:31:46.994Z,13.93
2023-08-27T19:34:27.121Z,13.89
2023-08-27T19:39:36.156Z,13.70
2023-08-27T19:42:34.154Z,13.75
2023-08-27T19:45:24.052Z,13.63
2023-08-27T19:47:51.041Z,13.70
2023-08-27T19:50:28.309Z,13.57
2023-08-27T19:58:44.223Z,13.43
2023-08-27T20:01:20.225Z,13.48
2023-08-27T20:06:29.156Z,13.49
2023-08-27T20:12:34.168Z,13.38
2023-08-27T20:21:34.098Z,13.42
2023-08-27T20:24:19.728Z,13.32
2023-08-27T20:26:53.079Z,13.33
2023-08-27T20:29:19.872Z,13.28
2023-08-27T20:32:18.019Z,13.08
2023-08-27T20:34:44.966Z,13.20
2023-08-27T20:37:23.055Z,13.17
2023-08-27T20:39:50.042Z,13.06
2023-08-27T20:42:25.060Z,13.08
2023-08-27T20:44:58.673Z,13.01
2023-08-27T20:47:32.212Z,13.08
2023-08-27T20:52:48.253Z,12.91
2023-08-27T20:57:50.745Z,12.85
2023-08-27T21:00:42.216Z,12.84
2023-08-27T21:06:59.186Z,12.99
2023-08-27T21:09:26.757Z,12.90
2023-08-27T21:12:08.708Z,12.83
2023-08-27T21:17:33.061Z,12.73
2023-08-27T21:32:24.353Z,12.66
2023-08-27T21:34:51.314Z,12.65
2023-08-27T21:37:31.818Z,12.73
2023-08-27T21:40:03.654Z,12.69
2023-08-27T21:48:50.270Z,12.40
2023-08-27T21:51:17.795Z,12.36
2023-08-27T21:53:51.245Z,12.37
2023-08-27T21:56:21.533Z,12.34
2023-08-27T21:58:48.434Z,12.32
2023-08-27T22:01:32.378Z,12.41
2023-08-27T22:04:21.220Z,12.32
2023-08-27T22:06:48.178Z,12.42
2023-08-27T22:09:22.140Z,12.21
2023-08-27T22:14:45.206Z,12.29
2023-08-27T22:17:25.265Z,12.27
2023-08-27T22:19:52.415Z,12.23
2023-08-27T22:22:26.191Z,12.23
2023-08-27T22:24:53.848Z,12.24
2023-08-27T22:27:33.158Z,12.15
2023-08-27T22:30:05.055Z,12.26
2023-08-27T22:32:46.202Z,12.43
2023-08-27T22:35:22.079Z,12.45
2023-08-27T22:37:55.146Z,12.52
2023-08-27T22:40:26.131Z,12.52
2023-08-27T22:45:35.102Z,12.63
2023-08-27T22:50:58.341Z,12.70
2023-08-27T22:53:42.163Z,12.71
2023-08-27T22:56:21.199Z,12.76
2023-08-27T22:58:54.166Z,12.78
2023-08-27T23:01:21.116Z,12.82
2023-08-27T23:03:47.974Z,12.82
2023-08-27T23:06:28.411Z,12.84
2023-08-27T23:09:00.482Z,12.81
2023-08-27T23:11:35.153Z,12.81
2023-08-27T23:14:01.891Z,12.78
2023-08-27T23:16:37.215Z,12.74
2023-08-27T23:19:04.364Z,12.71
2023-08-27T23:21:38.144Z,12.67
2023-08-27T23:24:14.675Z,12.66
2023-08-27T23:26:48.164Z,12.63
2023-08-27T23:31:57.153Z,12.58
2023-08-27T23:34:29.241Z,12.50
2023-08-27T23:37:19.212Z,12.54
2023-08-27T23:39:46.018Z,12.52
2023-08-27T23:45:06.378Z,12.46
2023-08-27T23:47:40.207Z,12.43
2023-08-27T23:50:10.582Z,12.42
2023-08-27T23:52:45.223Z,12.41
2023-08-27T23:55:21.490Z,12.38
2023-08-27T23:57:48.392Z,12.36
